Time,TemperatureF,DewpointF,PressureIn,WindDirection,WindDirectionDegrees,WindSpeedMPH,WindSpeedGustMPH,Humidity,HourlyPrecipIn,Conditions,Clouds,dailyrainin,SoftwareType,DateUTC
2013-03-02 00:02:00,53.0,43.0,30.03,WNW,302,4.0,9.0,70,0.00,,,0.00,,2013-03-02 05:02:00,
2013-03-02 00:12:00,53.0,43.0,30.03,WNW,302,4.0,9.0,70,0.00,,,0.00,,2013-03-02 05:12:00,
2013-03-02 00:23:00,53.0,43.0,30.03,WNW,302,4.0,9.0,70,0.00,,,0.00,,2013-03-02 05:23:00,
2013-03-02 00:32:00,52.0,42.0,30.04,West,260,4.0,9.0,69,0.00,,,0.00,,2013-03-02 05:32:00,
2013-03-02 00:42:00,52.0,42.0,30.04,West,260,4.0,9.0,69,0.00,,,0.00,,2013-03-02 05:42:00,
2013-03-02 00:52:00,52.0,42.0,30.04,NW,310,4.0,8.0,69,0.00,,,0.00,,2013-03-02 05:52:00,
2013-03-02 01:02:00,52.0,42.0,30.03,WNW,287,2.0,10.0,69,0.00,,,0.00,,2013-03-02 06:02:00,
2013-03-02 01:11:00,52.0,42.0,30.03,WNW,287,2.0,10.0,69,0.00,,,0.00,,2013-03-02 06:11:00,
2013-03-02 01:22:00,52.0,42.0,30.03,WNW,299,3.0,9.0,69,0.00,,,0.00,,2013-03-02 06:22:00,
2013-03-02 01:32:00,52.0,43.0,30.03,NNW,331,2.0,7.0,70,0.00,,,0.00,,2013-03-02 06:32:00,
2013-03-02 01:42:00,52.0,43.0,30.03,NNW,331,2.0,7.0,70,0.00,,,0.00,,2013-03-02 06:42:00,
2013-03-02 01:52:00,52.0,42.0,30.03,WNW,292,4.0,9.0,69,0.00,,,0.00,,2013-03-02 06:52:00,
2013-03-02 02:01:00,52.0,42.0,30.03,WNW,296,5.0,10.0,69,0.00,,,0.00,,2013-03-02 07:01:00,
2013-03-02 02:11:00,52.0,42.0,30.03,WNW,296,5.0,10.0,69,0.00,,,0.00,,2013-03-02 07:11:00,
2013-03-02 02:22:00,52.0,43.0,30.03,NW,312,4.0,10.0,70,0.00,,,0.00,,2013-03-02 07:22:00,
2013-03-02 02:32:00,50.0,39.0,30.04,NNW,328,5.0,12.0,65,0.00,,,0.00,,2013-03-02 07:32:00,
2013-03-02 02:42:00,50.0,39.0,30.04,NNW,328,5.0,12.0,65,0.00,,,0.00,,2013-03-02 07:42:00,
2013-03-02 02:52:00,50.0,38.0,30.04,NNW,343,2.0,8.0,63,0.00,,,0.00,,2013-03-02 07:52:00,
2013-03-02 03:01:00,49.0,37.0,30.04,NNW,348,1.0,7.0,64,0.00,,,0.00,,2013-03-02 08:01:00,
2013-03-02 03:11:00,49.0,37.0,30.04,NNW,348,1.0,7.0,64,0.00,,,0.00,,2013-03-02 08:11:00,
2013-03-02 03:22:00,49.0,38.0,30.04,NNE,17,0.0,8.0,65,0.00,,,0.00,,2013-03-02 08:22:00,
2013-03-02 03:32:00,49.0,37.0,30.04,NNW,338,3.0,12.0,63,0.00,,,0.00,,2013-03-02 08:32:00,
2013-03-02 03:42:00,49.0,37.0,30.04,NNW,338,3.0,12.0,63,0.00,,,0.00,,2013-03-02 08:42:00,
2013-03-02 03:52:00,48.0,36.0,30.04,North,355,3.0,9.0,64,0.00,,,0.00,,2013-03-02 08:52:00,
2013-03-02 04:02:00,48.0,36.0,30.04,North,355,3.0,9.0,64,0.00,,,0.00,,2013-03-02 09:02:00,
2013-03-02 04:11:00,48.0,36.0,30.04,North,355,3.0,9.0,64,0.00,,,0.00,,2013-03-02 09:11:00,
2013-03-02 04:22:00,48.0,36.0,30.03,NW,320,2.0,10.0,64,0.00,,,0.00,,2013-03-02 09:22:00,
2013-03-02 04:32:00,48.0,37.0,30.04,NW,309,2.0,6.0,65,0.00,,,0.00,,2013-03-02 09:32:00,
2013-03-02 04:42:00,48.0,37.0,30.04,NW,309,2.0,6.0,65,0.00,,,0.00,,2013-03-02 09:42:00,
2013-03-02 04:52:00,47.0,36.0,30.04,NNW,334,2.0,6.0,65,0.00,,,0.00,,2013-03-02 09:52:00,
2013-03-02 05:01:00,48.0,36.0,30.04,NW,324,1.0,4.0,64,0.00,,,0.00,,2013-03-02 10:01:00,
2013-03-02 05:16:00,48.0,36.0,30.04,NW,324,1.0,4.0,64,0.00,,,0.00,,2013-03-02 10:16:00,
2013-03-02 05:22:00,48.0,36.0,30.03,NNW,344,2.0,6.0,63,0.00,,,0.00,,2013-03-02 10:22:00,
2013-03-02 05:32:00,48.0,36.0,30.03,North,9,2.0,6.0,64,0.00,,,0.00,,2013-03-02 10:32:00,
2013-03-02 05:43:00,48.0,36.0,30.03,North,9,2.0,6.0,64,0.00,,,0.00,,2013-03-02 10:43:00,
2013-03-02 05:52:00,47.0,36.0,30.02,NE,38,1.0,5.0,65,0.00,,,0.00,,2013-03-02 10:52:00,
2013-03-02 06:01:00,47.0,36.0,30.02,NE,37,2.0,6.0,65,0.00,,,0.00,,2013-03-02 11:01:00,
2013-03-02 06:11:00,47.0,36.0,30.02,NE,37,2.0,6.0,65,0.00,,,0.00,,2013-03-02 11:11:00,
2013-03-02 06:22:00,46.0,35.0,30.02,NE,52,1.0,3.0,66,0.00,,,0.00,,2013-03-02 11:22:00,
2013-03-02 06:32:00,45.0,35.0,30.02,NNE,27,2.0,5.0,69,0.00,,,0.00,,2013-03-02 11:32:00,
2013-03-02 06:42:00,45.0,35.0,30.02,NNE,27,2.0,5.0,69,0.00,,,0.00,,2013-03-02 11:42:00,
2013-03-02 06:52:00,44.0,35.0,30.03,North,5,0.0,3.0,70,0.00,,,0.00,,2013-03-02 11:52:00,
2013-03-02 07:02:00,43.0,35.0,30.02,North,5,0.0,1.0,74,0.00,,,0.00,,2013-03-02 12:02:00,
2013-03-02 07:11:00,43.0,35.0,30.02,North,5,0.0,1.0,74,0.00,,,0.00,,2013-03-02 12:11:00,
2013-03-02 07:22:00,42.0,36.0,30.03,North,9,1.0,3.0,78,0.00,,,0.00,,2013-03-02 12:22:00,
2013-03-02 07:33:00,42.0,36.0,30.03,NNE,17,0.0,4.0,78,0.00,,,0.00,,2013-03-02 12:33:00,
2013-03-02 07:43:00,42.0,36.0,30.03,NNE,17,0.0,4.0,78,0.00,,,0.00,,2013-03-02 12:43:00,
2013-03-02 07:53:00,43.0,37.0,30.04,NNE,17,1.0,3.0,79,0.00,,,0.00,,2013-03-02 12:53:00,
2013-03-02 08:01:00,46.0,37.0,30.04,NNE,27,1.0,5.0,71,0.00,,,0.00,,2013-03-02 13:01:00,
2013-03-02 08:11:00,46.0,37.0,30.04,NNE,27,1.0,5.0,71,0.00,,,0.00,,2013-03-02 13:11:00,
2013-03-02 08:22:00,48.0,37.0,30.05,North,5,3.0,8.0,65,0.00,,,0.00,,2013-03-02 13:22:00,
2013-03-02 08:32:00,49.0,36.0,30.06,ENE,57,3.0,8.0,61,0.00,,,0.00,,2013-03-02 13:32:00,
2013-03-02 08:42:00,49.0,36.0,30.06,ENE,57,3.0,8.0,61,0.00,,,0.00,,2013-03-02 13:42:00,
2013-03-02 08:52:00,51.0,36.0,30.06,NNW,348,4.0,8.0,57,0.00,,,0.00,,2013-03-02 13:52:00,
2013-03-02 09:01:00,52.0,37.0,30.06,NNE,29,3.0,8.0,56,0.00,,,0.00,,2013-03-02 14:01:00,
2013-03-02 09:11:00,52.0,37.0,30.06,NNE,29,3.0,8.0,56,0.00,,,0.00,,2013-03-02 14:11:00,
2013-03-02 09:21:00,53.0,37.0,30.07,NNW,331,1.0,7.0,55,0.00,,,0.00,,2013-03-02 14:21:00,
2013-03-02 09:32:00,52.0,37.0,30.06,NW,310,1.0,5.0,56,0.00,,,0.00,,2013-03-02 14:32:00,
2013-03-02 09:42:00,52.0,37.0,30.06,NW,310,1.0,5.0,56,0.00,,,0.00,,2013-03-02 14:42:00,
2013-03-02 09:52:00,52.0,37.0,30.06,NW,311,1.0,5.0,57,0.00,,,0.00,,2013-03-02 14:52:00,
2013-03-02 10:02:00,52.0,37.0,30.06,NW,311,1.0,5.0,57,0.00,,,0.00,,2013-03-02 15:02:00,
2013-03-02 10:11:00,52.0,37.0,30.06,NW,311,1.0,5.0,57,0.00,,,0.00,,2013-03-02 15:11:00,
2013-03-02 10:21:00,55.0,39.0,30.06,NNW,329,3.0,7.0,54,0.00,,,0.00,,2013-03-02 15:21:00,
2013-03-02 10:32:00,56.0,40.0,30.06,North,360,2.0,8.0,55,0.00,,,0.00,,2013-03-02 15:32:00,
2013-03-02 10:42:00,56.0,40.0,30.06,North,360,2.0,8.0,55,0.00,,,0.00,,2013-03-02 15:42:00,
2013-03-02 10:52:00,56.0,40.0,30.06,North,360,2.0,8.0,55,0.00,,,0.00,,2013-03-02 15:52:00,
2013-03-02 11:02:00,56.0,40.0,30.06,WNW,284,4.0,11.0,55,0.00,,,0.00,,2013-03-02 16:02:00,
2013-03-02 11:11:00,56.0,40.0,30.06,WNW,284,4.0,11.0,55,0.00,,,0.00,,2013-03-02 16:11:00,
2013-03-02 11:21:00,54.0,39.0,30.07,West,271,5.0,13.0,57,0.00,,,0.00,,2013-03-02 16:21:00,
2013-03-02 11:32:00,54.0,39.0,30.08,NW,309,7.0,13.0,56,0.00,,,0.00,,2013-03-02 16:32:00,
2013-03-02 11:42:00,54.0,39.0,30.08,NW,309,7.0,13.0,56,0.00,,,0.00,,2013-03-02 16:42:00,
2013-03-02 11:52:00,54.0,39.0,30.08,NW,305,5.0,12.0,57,0.00,,,0.00,,2013-03-02 16:52:00,
2013-03-02 12:01:00,56.0,41.0,30.09,NNW,336,5.0,11.0,56,0.00,,,0.00,,2013-03-02 17:01:00,
2013-03-02 12:12:00,56.0,41.0,30.09,NNW,336,5.0,11.0,56,0.00,,,0.00,,2013-03-02 17:12:00,
2013-03-02 12:22:00,57.0,41.0,30.08,West,271,5.0,11.0,54,0.00,,,0.00,,2013-03-02 17:22:00,
2013-03-02 12:32:00,53.0,39.0,30.09,WNW,296,7.0,18.0,59,0.00,,,0.00,,2013-03-02 17:32:00,
2013-03-02 12:42:00,53.0,39.0,30.09,WNW,296,7.0,18.0,59,0.00,,,0.00,,2013-03-02 17:42:00,
2013-03-02 12:52:00,54.0,40.0,30.08,WNW,290,6.0,15.0,60,0.00,,,0.00,,2013-03-02 17:52:00,
2013-03-02 13:02:00,58.0,40.0,30.07,West,275,11.0,18.0,52,0.00,,,0.00,,2013-03-02 18:02:00,
2013-03-02 13:12:00,58.0,40.0,30.07,West,275,11.0,18.0,52,0.00,,,0.00,,2013-03-02 18:12:00,
2013-03-02 13:22:00,58.0,40.0,30.07,West,275,11.0,18.0,52,0.00,,,0.00,,2013-03-02 18:22:00,
2013-03-02 13:32:00,56.0,39.0,30.05,West,280,10.0,18.0,52,0.00,,,0.00,,2013-03-02 18:32:00,
2013-03-02 13:42:00,56.0,39.0,30.05,West,280,10.0,18.0,52,0.00,,,0.00,,2013-03-02 18:42:00,
2013-03-02 13:52:00,59.0,39.0,30.04,West,279,8.0,13.0,48,0.00,,,0.00,,2013-03-02 18:52:00,
2013-03-02 14:02:00,59.0,38.0,30.03,West,276,11.0,21.0,46,0.00,,,0.00,,2013-03-02 19:02:00,
2013-03-02 14:12:00,59.0,38.0,30.03,West,276,11.0,21.0,46,0.00,,,0.00,,2013-03-02 19:12:00,
2013-03-02 14:22:00,57.0,38.0,30.03,West,266,8.0,19.0,49,0.00,,,0.00,,2013-03-02 19:22:00,
2013-03-02 14:32:00,57.0,38.0,30.01,West,273,10.0,27.0,49,0.00,,,0.00,,2013-03-02 19:32:00,
2013-03-02 14:42:00,57.0,38.0,30.01,West,273,10.0,27.0,49,0.00,,,0.00,,2013-03-02 19:42:00,
2013-03-02 14:52:00,59.0,39.0,30.01,NW,314,9.0,18.0,47,0.00,,,0.00,,2013-03-02 19:52:00,
2013-03-02 15:02:00,58.0,38.0,30.01,NW,304,9.0,18.0,48,0.00,,,0.00,,2013-03-02 20:02:00,
2013-03-02 15:11:00,58.0,38.0,30.01,NW,304,9.0,18.0,48,0.00,,,0.00,,2013-03-02 20:11:00,
2013-03-02 15:22:00,58.0,38.0,30.01,NW,321,9.0,19.0,47,0.00,,,0.00,,2013-03-02 20:22:00,
2013-03-02 15:32:00,58.0,38.0,30.00,NNW,335,9.0,20.0,48,0.00,,,0.00,,2013-03-02 20:32:00,
2013-03-02 15:42:00,58.0,38.0,30.00,NNW,335,9.0,20.0,48,0.00,,,0.00,,2013-03-02 20:42:00,
2013-03-02 15:52:00,60.0,39.0,30.00,North,355,7.0,18.0,46,0.00,,,0.00,,2013-03-02 20:52:00,
2013-03-02 16:02:00,60.0,39.0,30.00,West,275,8.0,28.0,45,0.00,,,0.00,,2013-03-02 21:02:00,
2013-03-02 16:12:00,60.0,39.0,30.00,West,275,8.0,28.0,45,0.00,,,0.00,,2013-03-02 21:12:00,
2013-03-02 16:22:00,58.0,37.0,30.00,WNW,297,12.0,20.0,46,0.00,,,0.00,,2013-03-02 21:22:00,
2013-03-02 16:32:00,57.0,38.0,30.00,WNW,285,10.0,19.0,48,0.00,,,0.00,,2013-03-02 21:32:00,
2013-03-02 16:42:00,57.0,38.0,30.00,WNW,285,10.0,19.0,48,0.00,,,0.00,,2013-03-02 21:42:00,
2013-03-02 16:52:00,57.0,38.0,30.01,NNW,333,7.0,20.0,49,0.00,,,0.00,,2013-03-02 21:52:00,
2013-03-02 17:02:00,56.0,37.0,30.01,NNW,336,9.0,20.0,48,0.00,,,0.00,,2013-03-02 22:02:00,
2013-03-02 17:12:00,56.0,37.0,30.01,NNW,336,9.0,20.0,48,0.00,,,0.00,,2013-03-02 22:12:00,
2013-03-02 17:22:00,56.0,37.0,30.01,NW,317,8.0,20.0,49,0.00,,,0.00,,2013-03-02 22:22:00,
2013-03-02 17:32:00,55.0,38.0,30.00,WNW,290,8.0,17.0,52,0.00,,,0.00,,2013-03-02 22:32:00,
2013-03-02 17:42:00,55.0,38.0,30.00,WNW,290,8.0,17.0,52,0.00,,,0.00,,2013-03-02 22:42:00,
2013-03-02 17:52:00,55.0,38.0,30.00,WNW,296,6.0,18.0,52,0.00,,,0.00,,2013-03-02 22:52:00,
2013-03-02 18:01:00,54.0,38.0,30.01,West,273,6.0,17.0,55,0.00,,,0.00,,2013-03-02 23:01:00,
2013-03-02 18:11:00,53.0,38.0,30.01,WSW,257,5.0,14.0,57,0.00,,,0.00,,2013-03-02 23:11:00,
2013-03-02 18:22:00,53.0,38.0,30.01,WSW,257,5.0,14.0,57,0.00,,,0.00,,2013-03-02 23:22:00,
2013-03-02 18:32:00,52.0,38.0,30.01,WNW,294,6.0,16.0,59,0.00,,,0.00,,2013-03-02 23:32:00,
2013-03-02 18:42:00,52.0,38.0,30.01,WNW,294,6.0,16.0,59,0.00,,,0.00,,2013-03-02 23:42:00,
2013-03-02 18:52:00,51.0,38.0,30.02,NW,311,5.0,14.0,61,0.00,,,0.00,,2013-03-02 23:52:00,
2013-03-02 19:02:00,51.0,39.0,30.03,West,279,3.0,10.0,63,0.00,,,0.00,,2013-03-03 00:02:00,
2013-03-02 19:11:00,51.0,39.0,30.03,West,279,3.0,10.0,63,0.00,,,0.00,,2013-03-03 00:11:00,
2013-03-02 19:22:00,50.0,39.0,30.02,NNW,340,4.0,9.0,65,0.00,,,0.00,,2013-03-03 00:22:00,
2013-03-02 19:32:00,49.0,39.0,30.02,WNW,290,3.0,5.0,68,0.00,,,0.00,,2013-03-03 00:32:00,
2013-03-02 19:42:00,49.0,39.0,30.02,WNW,290,3.0,5.0,68,0.00,,,0.00,,2013-03-03 00:42:00,
2013-03-02 19:52:00,48.0,38.0,30.03,WNW,297,2.0,8.0,69,0.00,,,0.00,,2013-03-03 00:52:00,
2013-03-02 20:01:00,47.0,38.0,30.03,West,279,2.0,4.0,71,0.00,,,0.00,,2013-03-03 01:01:00,
2013-03-02 20:11:00,47.0,38.0,30.03,West,279,2.0,4.0,71,0.00,,,0.00,,2013-03-03 01:11:00,
2013-03-02 20:21:00,46.0,38.0,30.03,WNW,290,0.0,3.0,74,0.00,,,0.00,,2013-03-03 01:21:00,
2013-03-02 20:32:00,45.0,39.0,30.04,WNW,290,0.0,2.0,78,0.00,,,0.00,,2013-03-03 01:32:00,
2013-03-02 20:42:00,45.0,39.0,30.04,WNW,290,0.0,2.0,78,0.00,,,0.00,,2013-03-03 01:42:00,
2013-03-02 20:52:00,43.0,38.0,30.04,WNW,290,0.0,0.0,82,0.00,,,0.00,,2013-03-03 01:52:00,
2013-03-02 21:01:00,42.0,38.0,30.04,WNW,290,0.0,0.0,84,0.00,,,0.00,,2013-03-03 02:01:00,
2013-03-02 21:11:00,42.0,38.0,30.04,WNW,290,0.0,0.0,84,0.00,,,0.00,,2013-03-03 02:11:00,
2013-03-02 21:21:00,41.0,37.0,30.04,WNW,290,0.0,0.0,87,0.00,,,0.00,,2013-03-03 02:21:00,
2013-03-02 21:32:00,40.0,37.0,30.04,WNW,290,0.0,1.0,88,0.00,,,0.00,,2013-03-03 02:32:00,
2013-03-02 21:42:00,40.0,37.0,30.04,WNW,290,0.0,1.0,88,0.00,,,0.00,,2013-03-03 02:42:00,
2013-03-02 21:52:00,40.0,37.0,30.04,WNW,290,0.0,1.0,89,0.00,,,0.00,,2013-03-03 02:52:00,
2013-03-02 22:02:00,40.0,37.0,30.03,WNW,290,0.0,0.0,90,0.00,,,0.00,,2013-03-03 03:02:00,
2013-03-02 22:11:00,40.0,37.0,30.03,WNW,290,0.0,0.0,90,0.00,,,0.00,,2013-03-03 03:11:00,
2013-03-02 22:22:00,39.0,37.0,30.03,WNW,290,0.0,0.0,91,0.00,,,0.00,,2013-03-03 03:22:00,
2013-03-02 22:32:00,39.0,37.0,30.03,WNW,290,0.0,0.0,91,0.00,,,0.00,,2013-03-03 03:32:00,
2013-03-02 22:42:00,39.0,37.0,30.03,WNW,290,0.0,0.0,91,0.00,,,0.00,,2013-03-03 03:42:00,
2013-03-02 22:52:00,38.0,36.0,30.03,WNW,290,0.0,0.0,92,0.00,,,0.00,,2013-03-03 03:52:00,
2013-03-02 23:01:00,38.0,36.0,30.03,WNW,290,0.0,0.0,92,0.00,,,0.00,,2013-03-03 04:01:00,
2013-03-02 23:11:00,38.0,36.0,30.03,WNW,290,0.0,0.0,92,0.00,,,0.00,,2013-03-03 04:11:00,
2013-03-02 23:21:00,38.0,36.0,30.04,WNW,293,0.0,4.0,93,0.00,,,0.00,,2013-03-03 04:21:00,
2013-03-02 23:32:00,40.0,38.0,30.05,WNW,286,2.0,4.0,93,0.00,,,0.00,,2013-03-03 04:32:00,
2013-03-02 23:42:00,40.0,38.0,30.05,WNW,286,2.0,4.0,93,0.00,,,0.00,,2013-03-03 04:42:00,
2013-03-02 23:51:00,41.0,38.0,30.04,WNW,286,0.0,2.0,90,0.00,,,0.00,,2013-03-03 04:51:00,